Time;durP1;ratioP1;P1;durP2;ratioP2;P2;SDS_P1;SDS_P2;PMS_P1;PMS_P2;Temp;Humidity;BMP_temperature;BMP_pressure;BME280_temperature;BME280_humidity;BME280_pressure;Samples;Min_cycle;Max_cycle;Signal;HPM_P1;HPM_P2
2023/03/04 00:02:23;;;;;;;35.28;25.65;;;3.50;99.90;;;;;;6057640;23;20614;-70
2023/03/04 00:04:50;;;;;;;33.25;25.15;;;3.40;99.90;;;;;;6059988;23;20257;-70
2023/03/04 00:07:17;;;;;;;32.22;24.20;;;3.40;99.90;;;;;;6061533;23;20208;-69
2023/03/04 00:09:46;;;;;;;35.50;24.27;;;3.40;99.90;;;;;;6059861;23;20264;-70
2023/03/04 00:12:13;;;;;;;28.80;22.67;;;3.30;99.90;;;;;;6060331;23;20223;-70
2023/03/04 00:14:40;;;;;;;30.92;22.70;;;3.30;99.90;;;;;;6059504;23;20247;-70
2023/03/04 00:17:09;;;;;;;27.30;21.55;;;3.30;99.90;;;;;;6042248;23;20186;-71
2023/03/04 00:19:36;;;;;;;27.13;20.83;;;3.30;99.90;;;;;;6058118;23;20227;-71
2023/03/04 00:22:03;;;;;;;30.60;20.73;;;3.30;99.90;;;;;;6061245;23;20197;-70
2023/03/04 00:24:31;;;;;;;28.17;21.98;;;3.30;99.90;;;;;;6058219;23;20718;-70
2023/03/04 00:26:58;;;;;;;28.15;22.23;;;3.30;99.90;;;;;;6059972;23;20193;-70
2023/03/04 00:29:25;;;;;;;29.50;21.40;;;3.20;99.90;;;;;;6059664;23;20280;-70
2023/03/04 00:31:52;;;;;;;26.83;21.05;;;3.20;99.90;;;;;;6057089;23;20276;-68
2023/03/04 00:34:20;;;;;;;27.33;18.92;;;3.10;99.90;;;;;;6057802;23;20209;-69
2023/03/04 00:36:47;;;;;;;26.00;19.40;;;3.10;99.90;;;;;;6060973;23;20239;-70
2023/03/04 00:39:15;;;;;;;26.10;20.00;;;3.10;99.90;;;;;;6058955;23;20191;-70
2023/03/04 00:41:42;;;;;;;26.48;21.23;;;3.10;99.90;;;;;;6056888;23;20271;-68
2023/03/04 00:44:09;;;;;;;28.83;20.77;;;3.10;99.90;;;;;;6050723;23;20228;-69
2023/03/04 00:46:36;;;;;;;24.88;19.20;;;3.00;99.90;;;;;;6053714;23;20200;-69
2023/03/04 00:49:03;;;;;;;29.67;21.10;;;3.00;99.90;;;;;;6060583;23;20301;-69
2023/03/04 00:51:32;;;;;;;27.13;19.98;;;3.00;99.90;;;;;;6058313;23;20224;-70
2023/03/04 00:53:59;;;;;;;27.45;20.10;;;3.00;99.90;;;;;;6058185;23;20560;-70
2023/03/04 00:56:26;;;;;;;26.75;19.90;;;2.90;99.90;;;;;;6060614;23;20188;-70
2023/03/04 00:58:53;;;;;;;25.83;19.70;;;2.90;99.90;;;;;;6058054;23;20278;-69
2023/03/04 01:01:20;;;;;;;28.10;21.00;;;2.90;99.90;;;;;;6054649;23;20274;-70
2023/03/04 01:03:47;;;;;;;26.35;19.65;;;2.80;99.90;;;;;;6061896;23;20308;-70
2023/03/04 01:06:14;;;;;;;26.88;20.17;;;2.80;99.90;;;;;;6058324;23;20282;-71
2023/03/04 01:08:43;;;;;;;26.95;20.70;;;2.80;99.90;;;;;;6062699;23;20597;-70
2023/03/04 01:11:10;;;;;;;28.70;21.13;;;2.70;99.90;;;;;;6060894;23;20273;-70
2023/03/04 01:13:38;;;;;;;27.95;20.88;;;2.70;99.90;;;;;;6058867;23;20218;-70
2023/03/04 01:16:06;;;;;;;31.95;22.10;;;2.70;99.90;;;;;;6061486;23;20245;-70
2023/03/04 01:18:34;;;;;;;27.83;22.25;;;2.70;99.90;;;;;;6059844;23;20189;-71
2023/03/04 01:21:00;;;;;;;26.58;20.55;;;2.60;99.90;;;;;;6056129;23;20204;-69
2023/03/04 01:23:28;;;;;;;27.50;22.02;;;2.60;99.90;;;;;;6061257;23;20307;-70
2023/03/04 01:25:56;;;;;;;29.23;21.10;;;2.60;99.90;;;;;;6061271;23;20214;-69
2023/03/04 01:28:23;;;;;;;29.05;20.17;;;2.50;99.90;;;;;;6062600;23;20278;-69
2023/03/04 01:30:50;;;;;;;28.40;20.02;;;2.50;99.90;;;;;;6053311;23;20199;-69
2023/03/04 01:33:18;;;;;;;25.88;18.95;;;2.40;99.90;;;;;;6061087;23;20780;-70
2023/03/04 01:35:44;;;;;;;24.77;19.00;;;2.40;99.90;;;;;;6059542;23;20623;-69
2023/03/04 01:38:13;;;;;;;28.73;20.55;;;2.40;99.90;;;;;;6061497;23;20194;-69
2023/03/04 01:40:40;;;;;;;24.92;18.92;;;2.30;99.90;;;;;;6061759;23;20552;-69
2023/03/04 01:43:15;;;;;;;26.67;19.75;;;2.30;99.90;;;;;;6056586;23;20638;-70
2023/03/04 01:45:43;;;;;;;23.73;17.95;;;2.30;99.90;;;;;;6055374;23;20241;-70
2023/03/04 01:48:14;;;;;;;24.35;17.95;;;2.20;99.90;;;;;;6060359;23;20195;-70
2023/03/04 01:50:42;;;;;;;22.80;17.05;;;2.20;99.90;;;;;;6060093;23;20224;-70
2023/03/04 01:53:17;;;;;;;26.67;17.73;;;2.10;99.90;;;;;;6060362;23;20200;-70
2023/03/04 01:55:44;;;;;;;20.25;16.45;;;2.00;99.90;;;;;;6057020;23;20201;-69
2023/03/04 01:58:13;;;;;;;24.02;18.00;;;2.00;99.90;;;;;;6061620;23;20236;-70
2023/03/04 02:00:40;;;;;;;21.92;15.93;;;1.90;99.90;;;;;;6059304;23;20207;-70
2023/03/04 02:03:11;;;;;;;23.27;16.77;;;1.90;99.90;;;;;;6060853;23;20236;-69
2023/03/04 02:05:40;;;;;;;21.10;17.70;;;1.90;99.90;;;;;;6058072;23;20562;-71
2023/03/04 02:08:07;;;;;;;23.60;17.42;;;1.90;99.90;;;;;;6062368;23;20260;-70
2023/03/04 02:10:35;;;;;;;24.60;18.35;;;1.80;99.90;;;;;;6058690;23;20285;-70
2023/03/04 02:13:02;;;;;;;21.30;17.40;;;1.80;99.90;;;;;;6058340;23;20199;-70
2023/03/04 02:15:31;;;;;;;21.30;16.55;;;1.80;99.90;;;;;;6061467;23;20274;-70
2023/03/04 02:17:59;;;;;;;22.83;16.95;;;1.80;99.90;;;;;;6061588;23;20191;-70
2023/03/04 02:20:34;;;;;;;21.45;17.63;;;1.70;99.90;;;;;;6051264;23;20611;-69
2023/03/04 02:23:10;;;;;;;20.90;16.27;;;1.70;99.90;;;;;;6062265;23;20231;-68
2023/03/04 02:25:43;;;;;;;22.55;17.65;;;1.70;99.90;;;;;;6055479;23;20745;-69
2023/03/04 02:28:12;;;;;;;22.13;16.30;;;1.60;99.90;;;;;;6060072;23;20191;-68
2023/03/04 02:30:39;;;;;;;22.08;16.55;;;1.60;99.90;;;;;;6059693;23;20301;-69
2023/03/04 02:33:06;;;;;;;23.40;17.48;;;1.50;99.90;;;;;;6061763;23;20524;-69
2023/03/04 02:35:34;;;;;;;23.85;17.63;;;1.50;99.90;;;;;;6051081;23;20310;-69
2023/03/04 02:38:01;;;;;;;24.15;17.30;;;1.40;99.90;;;;;;6040089;23;20647;-69
2023/03/04 02:40:31;;;;;;;21.42;16.13;;;1.40;99.90;;;;;;6060224;23;20228;-70
2023/03/04 02:42:59;;;;;;;20.95;15.70;;;1.40;99.90;;;;;;6061420;23;20193;-70
2023/03/04 02:45:42;;;;;;;22.52;16.92;;;1.30;99.90;;;;;;6056227;23;20254;-69
2023/03/04 02:48:10;;;;;;;23.58;15.80;;;1.30;99.90;;;;;;6047739;23;20189;-69
2023/03/04 02:50:41;;;;;;;19.98;15.65;;;1.20;99.90;;;;;;6059185;23;20341;-69
2023/03/04 02:53:08;;;;;;;24.50;17.58;;;1.20;99.90;;;;;;6061257;23;20308;-69
2023/03/04 02:55:36;;;;;;;24.02;17.50;;;1.20;99.90;;;;;;6058095;23;20196;-69
2023/03/04 02:58:03;;;;;;;25.67;18.10;;;1.20;99.90;;;;;;6059291;23;20283;-69
2023/03/04 03:00:30;;;;;;;24.85;16.95;;;1.10;99.90;;;;;;6058980;23;20214;-69
2023/03/04 03:02:59;;;;;;;21.33;16.30;;;1.10;99.90;;;;;;6061543;23;20194;-69
2023/03/04 03:05:28;;;;;;;24.00;17.67;;;1.10;99.90;;;;;;6057483;23;20218;-69
2023/03/04 03:07:55;;;;;;;21.20;15.52;;;1.00;99.90;;;;;;6062068;23;20259;-69
2023/03/04 03:10:23;;;;;;;25.17;16.30;;;1.00;99.90;;;;;;6059294;23;20205;-70
2023/03/04 03:12:50;;;;;;;26.60;16.70;;;1.00;99.90;;;;;;6058951;23;20224;-69
2023/03/04 03:15:18;;;;;;;24.35;17.40;;;1.00;99.90;;;;;;6060485;23;20229;-69
2023/03/04 03:17:45;;;;;;;24.50;17.85;;;1.00;99.90;;;;;;6060160;23;20316;-69
2023/03/04 03:20:15;;;;;;;25.60;18.60;;;0.90;99.90;;;;;;6061151;23;20293;-69
2023/03/04 03:22:42;;;;;;;26.65;19.05;;;0.90;99.90;;;;;;6055941;23;20271;-70
2023/03/04 03:25:11;;;;;;;22.20;16.85;;;0.90;99.90;;;;;;6059042;23;20279;-69
2023/03/04 03:27:39;;;;;;;25.27;18.10;;;0.90;99.90;;;;;;6061499;23;20191;-69
2023/03/04 03:30:09;;;;;;;24.27;18.15;;;0.90;99.90;;;;;;6057518;23;20196;-69
2023/03/04 03:32:36;;;;;;;24.00;17.05;;;0.90;99.90;;;;;;6058654;23;20182;-69
2023/03/04 03:35:04;;;;;;;25.27;17.05;;;0.90;99.90;;;;;;6060052;23;20217;-69
2023/03/04 03:37:33;;;;;;;23.25;17.25;;;0.80;99.90;;;;;;6061251;23;20185;-69
2023/03/04 03:40:00;;;;;;;28.17;17.55;;;0.80;99.90;;;;;;6060796;23;20247;-69
2023/03/04 03:42:27;;;;;;;25.02;17.92;;;0.80;99.90;;;;;;6059620;23;20247;-69
2023/03/04 03:44:54;;;;;;;32.17;18.75;;;0.70;99.90;;;;;;6058351;23;20713;-70
2023/03/04 03:47:22;;;;;;;25.88;18.30;;;0.70;99.90;;;;;;6052141;23;20192;-70
2023/03/04 03:49:49;;;;;;;27.63;18.67;;;0.60;99.90;;;;;;6058739;23;20189;-70
2023/03/04 03:52:15;;;;;;;26.60;19.08;;;0.60;99.90;;;;;;6062153;23;20189;-70
2023/03/04 03:54:44;;;;;;;27.27;19.23;;;0.60;99.90;;;;;;6060412;23;20719;-69
2023/03/04 03:57:11;;;;;;;29.02;19.77;;;0.50;99.90;;;;;;6060860;23;20189;-69
2023/03/04 03:59:38;;;;;;;29.67;19.30;;;0.50;99.90;;;;;;6059959;23;20275;-69
2023/03/04 04:02:05;;;;;;;26.42;17.67;;;0.50;99.90;;;;;;6059457;23;20271;-69
2023/03/04 04:04:32;;;;;;;31.20;20.75;;;0.40;99.90;;;;;;6059578;23;20213;-69
2023/03/04 04:06:59;;;;;;;27.52;19.90;;;0.40;99.90;;;;;;6060232;23;20216;-70
2023/03/04 04:09:26;;;;;;;27.67;19.25;;;0.40;99.90;;;;;;6060579;23;20649;-69
2023/03/04 04:11:55;;;;;;;30.33;21.77;;;0.40;99.90;;;;;;6058967;23;20197;-69
2023/03/04 04:14:22;;;;;;;28.98;20.17;;;0.40;99.90;;;;;;6048306;23;20216;-69
2023/03/04 04:16:49;;;;;;;25.90;19.55;;;0.40;99.90;;;;;;6055730;23;20192;-69
2023/03/04 04:19:19;;;;;;;27.13;19.17;;;0.40;99.90;;;;;;6051747;23;20846;-69
2023/03/04 04:21:47;;;;;;;28.30;19.80;;;0.30;99.90;;;;;;6045192;23;20189;-70
2023/03/04 04:24:14;;;;;;;26.35;18.65;;;0.30;99.90;;;;;;6057241;23;20354;-69
2023/03/04 04:26:42;;;;;;;29.67;20.77;;;0.30;99.90;;;;;;6057073;23;20201;-68
2023/03/04 04:29:13;;;;;;;30.50;21.02;;;0.20;99.90;;;;;;6060027;23;20192;-69
2023/03/04 04:31:41;;;;;;;32.97;21.38;;;0.20;99.90;;;;;;6057388;23;20240;-69
2023/03/04 04:34:09;;;;;;;33.22;21.65;;;0.20;99.90;;;;;;6057011;23;20255;-70
2023/03/04 04:36:36;;;;;;;30.23;21.00;;;0.20;99.90;;;;;;6062157;23;20366;-70
2023/03/04 04:39:04;;;;;;;32.13;22.20;;;0.20;99.90;;;;;;6060086;23;20265;-70
2023/03/04 04:41:38;;;;;;;33.45;20.92;;;0.20;99.90;;;;;;6057401;23;20193;-69
2023/03/04 04:44:05;;;;;;;27.58;19.60;;;0.20;99.90;;;;;;6059729;23;20331;-70
2023/03/04 04:46:34;;;;;;;30.92;20.42;;;0.20;99.90;;;;;;6047397;23;20296;-70
2023/03/04 04:49:01;;;;;;;33.05;21.60;;;0.10;99.90;;;;;;6061660;23;20272;-70
2023/03/04 04:51:28;;;;;;;37.58;24.70;;;0.10;99.90;;;;;;6056894;23;20192;-69
2023/03/04 04:53:55;;;;;;;32.78;20.88;;;0.10;99.90;;;;;;6062052;23;20284;-69
2023/03/04 04:56:25;;;;;;;34.10;22.67;;;0.10;99.90;;;;;;6061560;23;20271;-69
2023/03/04 04:58:53;;;;;;;36.85;23.73;;;0.10;99.90;;;;;;6046837;23;20636;-69
2023/03/04 05:01:21;;;;;;;32.20;21.40;;;0.10;99.90;;;;;;6059200;23;20220;-69
2023/03/04 05:03:52;;;;;;;36.92;22.35;;;0.00;99.90;;;;;;6060304;23;20260;-69
2023/03/04 05:06:20;;;;;;;33.03;21.08;;;0.00;99.90;;;;;;6058718;23;20227;-69
2023/03/04 05:08:47;;;;;;;31.35;20.58;;;0.00;99.90;;;;;;6061764;23;20196;-70
2023/03/04 05:11:15;;;;;;;36.45;22.48;;;0.00;99.90;;;;;;6054586;23;20225;-70
2023/03/04 05:13:42;;;;;;;33.53;21.30;;;0.00;99.90;;;;;;6062593;23;20209;-70
2023/03/04 05:16:09;;;;;;;37.15;23.52;;;0.00;99.90;;;;;;6042571;23;20201;-71
2023/03/04 05:18:37;;;;;;;35.42;20.48;;;-0.10;99.90;;;;;;6049579;23;20223;-69
2023/03/04 05:21:05;;;;;;;34.90;22.70;;;-0.10;99.90;;;;;;6043382;23;20217;-69
2023/03/04 05:23:34;;;;;;;34.97;22.17;;;-0.10;99.90;;;;;;6062189;23;20208;-70
2023/03/04 05:26:02;;;;;;;39.35;26.30;;;-0.10;99.90;;;;;;6062020;23;20220;-69
2023/03/04 05:28:29;;;;;;;35.08;22.40;;;-0.10;99.90;;;;;;6058888;23;20250;-69
2023/03/04 05:30:56;;;;;;;35.83;22.23;;;-0.20;99.90;;;;;;6059941;23;20271;-70
2023/03/04 05:33:23;;;;;;;37.10;22.23;;;-0.20;99.90;;;;;;6053968;23;20288;-69
2023/03/04 05:35:50;;;;;;;37.42;22.52;;;-0.20;99.90;;;;;;6041812;23;20314;-70
2023/03/04 05:38:19;;;;;;;41.13;25.25;;;-0.20;99.90;;;;;;6061570;23;20272;-70
2023/03/04 05:40:46;;;;;;;40.58;24.60;;;-0.20;99.90;;;;;;6062541;23;20192;-69
2023/03/04 05:43:14;;;;;;;38.10;23.85;;;-0.20;99.90;;;;;;6059886;23;20213;-69
2023/03/04 05:45:42;;;;;;;39.92;24.73;;;-0.30;99.90;;;;;;6061438;23;20832;-69
2023/03/04 05:48:09;;;;;;;45.78;25.75;;;-0.30;99.90;;;;;;6058766;23;20275;-68
2023/03/04 05:50:36;;;;;;;31.80;21.98;;;-0.30;99.90;;;;;;6055509;23;20221;-70
2023/03/04 05:53:03;;;;;;;38.28;22.00;;;-0.20;99.90;;;;;;6062390;23;20669;-70
2023/03/04 05:55:31;;;;;;;40.13;24.35;;;-0.30;99.90;;;;;;6057512;23;20195;-69
2023/03/04 05:57:59;;;;;;;37.15;23.77;;;-0.30;99.90;;;;;;6056781;23;20288;-69
2023/03/04 06:00:26;;;;;;;35.17;21.98;;;-0.30;99.90;;;;;;6060690;23;20189;-70
2023/03/04 06:02:53;;;;;;;36.80;23.10;;;-0.30;99.90;;;;;;6062761;23;20195;-69
2023/03/04 06:05:21;;;;;;;36.35;23.88;;;-0.20;99.90;;;;;;6058247;23;20217;-70
2023/03/04 06:07:48;;;;;;;43.05;23.42;;;-0.20;99.90;;;;;;6051857;23;20196;-72
2023/03/04 06:10:18;;;;;;;37.97;21.27;;;-0.20;99.90;;;;;;6058652;23;20276;-70
2023/03/04 06:12:46;;;;;;;35.78;22.63;;;-0.20;99.90;;;;;;6051807;23;20185;-70
2023/03/04 06:15:14;;;;;;;35.25;22.77;;;-0.20;99.90;;;;;;6058235;23;20272;-69
2023/03/04 06:17:42;;;;;;;36.03;23.00;;;-0.20;99.90;;;;;;6056643;23;20267;-71
2023/03/04 06:20:11;;;;;;;31.50;20.85;;;-0.20;99.90;;;;;;6060341;23;20189;-70
2023/03/04 06:22:38;;;;;;;37.20;23.38;;;-0.20;99.90;;;;;;6059960;23;20633;-71
2023/03/04 06:25:06;;;;;;;37.25;24.48;;;-0.20;99.90;;;;;;6058940;23;20192;-70
2023/03/04 06:27:33;;;;;;;32.50;22.77;;;-0.20;99.90;;;;;;6058822;23;20189;-71
2023/03/04 06:30:02;;;;;;;34.17;21.55;;;-0.10;99.90;;;;;;6059984;23;20239;-70
2023/03/04 06:32:29;;;;;;;39.28;23.95;;;-0.10;99.90;;;;;;6059786;23;20185;-70
2023/03/04 06:34:56;;;;;;;46.30;33.47;;;-0.10;99.90;;;;;;6049218;23;20586;-70
2023/03/04 06:37:23;;;;;;;32.67;22.30;;;-0.10;99.90;;;;;;6056185;23;20216;-71
2023/03/04 06:39:50;;;;;;;35.67;22.20;;;-0.10;99.90;;;;;;6045657;23;20554;-70
2023/03/04 06:42:18;;;;;;;36.33;23.25;;;0.00;99.90;;;;;;6055633;23;20193;-70
2023/03/04 06:44:45;;;;;;;35.80;23.58;;;0.00;99.90;;;;;;6061645;23;20197;-70
2023/03/04 06:47:13;;;;;;;36.38;23.00;;;0.00;99.90;;;;;;6049155;23;20259;-70
2023/03/04 06:49:41;;;;;;;32.17;21.00;;;0.00;99.90;;;;;;6061968;23;20276;-72
2023/03/04 06:52:10;;;;;;;33.63;21.85;;;0.10;99.90;;;;;;6057053;23;20197;-71
2023/03/04 06:54:36;;;;;;;33.03;20.98;;;0.20;99.90;;;;;;6061436;23;20205;-69
2023/03/04 06:57:04;;;;;;;31.15;19.92;;;0.20;99.90;;;;;;6049059;23;20190;-71
2023/03/04 06:59:31;;;;;;;27.20;18.80;;;0.30;99.90;;;;;;6055795;23;20191;-71
2023/03/04 07:01:58;;;;;;;28.60;19.60;;;0.40;99.90;;;;;;6052503;23;20277;-69
2023/03/04 07:04:26;;;;;;;26.58;19.17;;;0.50;99.90;;;;;;6043299;23;20209;-71
2023/03/04 07:06:53;;;;;;;31.27;20.15;;;0.50;99.90;;;;;;6058727;23;20246;-70
2023/03/04 07:09:20;;;;;;;27.52;18.98;;;0.60;99.90;;;;;;6061539;23;20190;-70
2023/03/04 07:11:48;;;;;;;30.27;19.73;;;0.70;99.90;;;;;;6053419;23;20268;-70
2023/03/04 07:14:15;;;;;;;25.73;16.70;;;0.80;99.90;;;;;;6043765;23;20217;-70
2023/03/04 07:16:42;;;;;;;27.52;18.88;;;0.90;99.90;;;;;;6059422;23;20198;-70
2023/03/04 07:19:09;;;;;;;27.30;18.52;;;0.90;99.90;;;;;;6051815;23;20680;-70
2023/03/04 07:21:37;;;;;;;27.50;18.75;;;1.00;99.90;;;;;;6044518;23;20633;-69
2023/03/04 07:24:05;;;;;;;30.70;19.08;;;1.00;99.90;;;;;;6055053;23;20215;-70
2023/03/04 07:26:32;;;;;;;28.30;18.45;;;1.10;99.90;;;;;;6060447;23;20220;-70
2023/03/04 07:28:59;;;;;;;27.65;19.30;;;1.10;99.90;;;;;;6061553;23;20244;-68
2023/03/04 07:31:29;;;;;;;29.10;19.52;;;1.10;99.90;;;;;;6057600;23;20191;-69
2023/03/04 07:33:58;;;;;;;24.75;18.10;;;1.20;99.90;;;;;;6060582;23;20210;-71
2023/03/04 07:36:25;;;;;;;24.55;18.25;;;1.20;99.90;;;;;;6061066;23;20601;-70
2023/03/04 07:38:54;;;;;;;28.42;20.60;;;1.20;99.90;;;;;;6059114;23;20249;-76
2023/03/04 07:41:24;;;;;;;25.55;17.98;;;1.20;99.90;;;;;;6052913;23;20274;-70
2023/03/04 07:43:51;;;;;;;26.25;19.00;;;1.20;99.90;;;;;;6055701;23;20214;-70
2023/03/04 07:46:19;;;;;;;31.05;19.98;;;1.30;99.90;;;;;;6054661;23;20222;-70
2023/03/04 07:48:46;;;;;;;27.27;19.25;;;1.40;99.90;;;;;;6059610;23;20484;-69
2023/03/04 07:51:16;;;;;;;26.42;18.02;;;1.40;99.90;;;;;;6060671;23;20275;-70
2023/03/04 07:53:45;;;;;;;26.33;18.08;;;1.40;99.90;;;;;;6053591;23;20700;-70
2023/03/04 07:56:16;;;;;;;27.05;18.17;;;1.50;99.90;;;;;;6056772;23;20194;-69
2023/03/04 07:58:44;;;;;;;27.38;19.00;;;1.50;99.90;;;;;;6048220;23;20217;-70
2023/03/04 08:01:11;;;;;;;27.50;19.48;;;1.60;99.90;;;;;;6059254;23;20195;-69
2023/03/04 08:03:39;;;;;;;26.38;18.63;;;1.70;99.90;;;;;;6059558;23;20214;-71
2023/03/04 08:06:07;;;;;;;28.25;18.75;;;1.70;99.90;;;;;;6040541;23;20219;-73
2023/03/04 08:08:35;;;;;;;26.13;19.27;;;1.70;99.90;;;;;;6045263;23;20181;-72
2023/03/04 08:11:04;;;;;;;27.02;20.52;;;1.80;99.90;;;;;;6056705;23;20188;-72
2023/03/04 08:13:33;;;;;;;29.25;19.92;;;1.80;99.90;;;;;;6058668;23;20269;-69
2023/03/04 08:16:00;;;;;;;26.83;19.52;;;1.80;99.90;;;;;;6056974;23;20242;-69
2023/03/04 08:18:27;;;;;;;24.20;18.00;;;1.80;99.90;;;;;;6055034;23;20221;-69
2023/03/04 08:20:54;;;;;;;27.63;18.77;;;1.90;99.90;;;;;;6050894;23;20275;-69
2023/03/04 08:23:21;;;;;;;24.80;19.00;;;1.90;99.90;;;;;;6052843;23;20564;-70
2023/03/04 08:25:49;;;;;;;27.67;19.85;;;2.00;99.90;;;;;;6058624;23;20240;-70
2023/03/04 08:28:17;;;;;;;26.50;19.33;;;2.00;99.90;;;;;;6056769;23;20266;-70
2023/03/04 08:30:45;;;;;;;26.88;20.00;;;2.10;99.90;;;;;;6057500;23;20209;-70
2023/03/04 08:33:12;;;;;;;27.73;18.23;;;2.10;99.90;;;;;;6057860;23;20208;-70
2023/03/04 08:35:40;;;;;;;25.67;18.25;;;2.20;99.90;;;;;;6060337;23;20196;-70
2023/03/04 08:38:07;;;;;;;27.90;19.40;;;2.20;99.90;;;;;;6055757;23;20192;-70
2023/03/04 08:40:34;;;;;;;30.33;19.50;;;2.30;99.90;;;;;;6053001;23;20314;-70
2023/03/04 08:43:01;;;;;;;27.02;18.52;;;2.30;99.90;;;;;;6059431;23;20215;-70
2023/03/04 08:45:28;;;;;;;25.73;17.95;;;2.40;99.90;;;;;;6060304;23;20265;-70
2023/03/04 08:47:57;;;;;;;25.50;18.45;;;2.50;99.90;;;;;;6058710;23;20666;-70
2023/03/04 08:50:26;;;;;;;26.48;19.00;;;2.60;99.90;;;;;;6060020;23;20633;-70
2023/03/04 08:52:53;;;;;;;23.02;17.58;;;2.70;99.90;;;;;;6056792;23;21128;-70
2023/03/04 08:55:20;;;;;;;26.35;18.58;;;2.80;99.90;;;;;;6050282;23;20196;-70
2023/03/04 08:57:47;;;;;;;24.27;18.50;;;2.90;99.90;;;;;;6048557;23;20200;-70
2023/03/04 09:00:15;;;;;;;25.25;18.85;;;2.90;99.90;;;;;;6046714;23;20197;-70
2023/03/04 09:02:42;;;;;;;23.73;18.80;;;2.90;99.90;;;;;;6039294;23;20276;-68
2023/03/04 09:05:10;;;;;;;22.67;18.70;;;2.90;99.90;;;;;;6056243;23;20598;-69
2023/03/04 09:07:37;;;;;;;25.40;18.85;;;3.00;99.90;;;;;;6046386;23;20228;-70
2023/03/04 09:10:05;;;;;;;26.63;19.00;;;3.10;99.90;;;;;;6057064;23;20189;-69
2023/03/04 09:12:32;;;;;;;25.88;19.20;;;3.10;99.90;;;;;;6056385;23;20192;-71
2023/03/04 09:14:59;;;;;;;28.10;19.75;;;3.10;99.90;;;;;;6055114;23;20190;-70
2023/03/04 09:17:26;;;;;;;29.35;19.85;;;3.10;99.90;;;;;;6059699;23;20220;-70
2023/03/04 09:19:53;;;;;;;24.80;19.40;;;2.90;99.90;;;;;;6057641;23;20192;-70
2023/03/04 09:22:22;;;;;;;23.77;19.25;;;2.80;99.90;;;;;;6057422;23;20553;-70
2023/03/04 09:24:49;;;;;;;25.83;19.85;;;2.70;99.90;;;;;;6053096;23;20196;-70
2023/03/04 09:27:16;;;;;;;26.42;20.40;;;2.60;99.90;;;;;;6058635;23;20235;-70
2023/03/04 09:29:44;;;;;;;26.67;20.58;;;2.50;99.90;;;;;;6061847;23;20553;-70
2023/03/04 09:32:11;;;;;;;26.58;19.60;;;2.50;99.90;;;;;;6059444;23;20195;-70
2023/03/04 09:34:38;;;;;;;28.55;20.80;;;2.40;99.90;;;;;;6054131;23;20200;-71
2023/03/04 09:37:05;;;;;;;25.85;18.60;;;2.30;99.90;;;;;;6061034;23;20196;-69
2023/03/04 09:39:34;;;;;;;28.25;19.48;;;2.30;99.90;;;;;;6061464;23;20286;-69
2023/03/04 09:42:02;;;;;;;24.48;18.48;;;2.30;99.90;;;;;;6059828;23;20259;-70
2023/03/04 09:44:32;;;;;;;24.02;19.40;;;2.40;99.90;;;;;;6052939;23;20216;-70
2023/03/04 09:47:02;;;;;;;22.55;18.48;;;2.50;99.90;;;;;;6051601;23;20228;-70
2023/03/04 09:49:30;;;;;;;25.38;18.38;;;2.50;99.90;;;;;;6034931;23;20212;-71
2023/03/04 09:52:03;;;;;;;23.27;17.42;;;2.50;99.90;;;;;;6048866;23;20447;-70
2023/03/04 09:54:44;;;;;;;23.90;18.00;;;2.60;99.90;;;;;;6051240;23;20224;-69
2023/03/04 09:57:22;;;;;;;23.58;18.02;;;2.60;99.90;;;;;;6043279;23;20230;-69
2023/03/04 09:59:57;;;;;;;26.52;18.38;;;2.70;99.90;;;;;;6034983;23;20196;-70
2023/03/04 10:02:32;;;;;;;26.58;19.20;;;2.80;99.90;;;;;;6061934;23;20179;-70
2023/03/04 10:05:02;;;;;;;22.38;17.63;;;2.90;99.90;;;;;;6037377;23;20199;-69
2023/03/04 10:07:33;;;;;;;22.23;17.55;;;2.90;99.90;;;;;;6048059;23;20216;-70
2023/03/04 10:10:04;;;;;;;22.65;17.58;;;3.00;99.90;;;;;;6061536;23;20173;-70
2023/03/04 10:12:38;;;;;;;23.92;17.58;;;3.20;99.90;;;;;;6056715;23;20192;-70
2023/03/04 10:15:17;;;;;;;21.67;17.90;;;3.40;99.90;;;;;;6037479;23;20228;-70
2023/03/04 10:17:48;;;;;;;23.30;18.65;;;3.50;99.90;;;;;;6062692;23;20267;-70
2023/03/04 10:20:19;;;;;;;21.38;16.88;;;3.60;99.90;;;;;;6060741;23;20201;-69
2023/03/04 10:22:48;;;;;;;25.55;17.88;;;3.60;99.90;;;;;;6042333;23;20241;-69
2023/03/04 10:25:19;;;;;;;22.58;18.55;;;3.50;99.90;;;;;;6041714;23;20221;-70
2023/03/04 10:27:51;;;;;;;25.40;19.35;;;3.50;99.90;;;;;;6037537;23;20217;-70
2023/03/04 10:30:30;;;;;;;24.67;19.42;;;3.60;99.90;;;;;;6053071;23;20258;-70
2023/03/04 10:32:57;;;;;;;23.73;19.38;;;3.70;99.90;;;;;;6061810;23;20219;-69
2023/03/04 10:35:28;;;;;;;22.95;19.63;;;3.90;99.90;;;;;;6059906;23;20188;-69
2023/03/04 10:37:55;;;;;;;21.70;18.95;;;3.90;99.90;;;;;;6059572;23;20189;-70
2023/03/04 10:40:25;;;;;;;24.85;20.20;;;3.90;99.90;;;;;;6056095;23;20685;-71
2023/03/04 10:43:05;;;;;;;25.23;20.90;;;3.90;99.90;;;;;;6060656;23;20415;-70
2023/03/04 10:45:35;;;;;;;22.90;18.98;;;4.00;99.90;;;;;;6054203;23;20192;-70
2023/03/04 10:48:02;;;;;;;22.75;19.58;;;4.00;99.90;;;;;;6059521;23;20312;-71
2023/03/04 10:50:30;;;;;;;24.13;19.98;;;4.00;99.90;;;;;;6062474;23;20196;-70
2023/03/04 10:52:58;;;;;;;24.75;19.58;;;4.10;99.90;;;;;;6056661;23;20649;-71
2023/03/04 10:55:29;;;;;;;23.67;20.40;;;4.30;99.90;;;;;;6052505;23;20192;-71
2023/03/04 10:58:02;;;;;;;23.10;20.20;;;4.40;99.90;;;;;;6059469;23;20688;-70
2023/03/04 11:00:32;;;;;;;24.15;20.20;;;4.50;99.90;;;;;;6052693;23;20710;-73
2023/03/04 11:03:25;;;;;;;23.90;21.25;;;4.60;99.90;;;;;;6052573;23;20227;-71
2023/03/04 11:06:07;;;;;;;24.23;21.33;;;4.70;99.90;;;;;;6057628;23;20192;-70
2023/03/04 11:08:34;;;;;;;22.20;19.60;;;4.80;99.90;;;;;;6054970;23;20221;-72
2023/03/04 11:11:03;;;;;;;21.63;19.20;;;4.80;99.90;;;;;;6059068;23;20667;-71
2023/03/04 11:13:31;;;;;;;24.67;19.92;;;4.80;99.90;;;;;;6053397;23;20224;-71
2023/03/04 11:16:02;;;;;;;26.90;21.65;;;4.90;99.90;;;;;;6047056;23;20192;-72
2023/03/04 11:18:38;;;;;;;26.05;20.95;;;4.80;99.90;;;;;;6059047;23;20192;-71
2023/03/04 11:21:06;;;;;;;28.52;22.83;;;4.80;99.90;;;;;;6059737;23;20267;-70
2023/03/04 11:23:39;;;;;;;26.10;22.33;;;4.70;99.90;;;;;;6056988;23;20231;-70
2023/03/04 11:26:12;;;;;;;27.40;22.83;;;4.70;99.90;;;;;;6050536;23;20200;-71
2023/03/04 11:28:45;;;;;;;33.45;24.75;;;4.70;99.90;;;;;;6056242;23;20227;-72
2023/03/04 11:31:16;;;;;;;29.25;22.70;;;4.60;99.90;;;;;;6057888;23;20232;-72
2023/03/04 11:33:50;;;;;;;28.85;21.92;;;4.60;99.90;;;;;;6037402;23;20217;-72
2023/03/04 11:36:33;;;;;;;30.48;23.92;;;4.60;99.90;;;;;;6055464;23;20220;-72
2023/03/04 11:39:03;;;;;;;29.20;23.05;;;4.50;99.90;;;;;;6057145;23;20268;-73
2023/03/04 11:41:35;;;;;;;32.00;24.30;;;4.50;99.90;;;;;;6059455;23;20192;-73
2023/03/04 11:44:05;;;;;;;29.15;23.55;;;4.50;99.90;;;;;;6059980;23;20208;-73
2023/03/04 11:47:05;;;;;;;30.88;23.65;;;4.50;99.90;;;;;;6057970;23;20216;-73
2023/03/04 11:49:53;;;;;;;29.25;23.63;;;4.50;99.90;;;;;;6056641;23;20280;-73
2023/03/04 11:52:34;;;;;;;30.85;24.50;;;4.50;99.90;;;;;;6052590;23;20253;-72
2023/03/04 11:55:38;;;;;;;31.85;23.75;;;4.50;99.90;;;;;;6058614;23;20188;-71
2023/03/04 11:58:21;;;;;;;30.33;23.83;;;4.50;99.90;;;;;;5969602;24;20222;-71
2023/03/04 12:00:55;;;;;;;33.95;25.80;;;4.40;99.90;;;;;;6046023;23;20222;-72
2023/03/04 12:03:46;;;;;;;33.38;24.98;;;4.40;99.90;;;;;;6057154;23;20216;-71
2023/03/04 12:06:23;;;;;;;29.70;23.40;;;4.40;99.90;;;;;;6054193;23;20185;-71
2023/03/04 12:09:03;;;;;;;31.48;24.85;;;4.40;99.90;;;;;;6058452;23;20239;-71
2023/03/04 12:11:42;;;;;;;32.63;23.60;;;4.40;99.90;;;;;;6060353;23;20656;-71
2023/03/04 12:14:20;;;;;;;29.13;24.88;;;4.40;99.90;;;;;;6059552;23;20204;-71
2023/03/04 12:17:24;;;;;;;32.55;26.00;;;4.40;99.90;;;;;;6058521;23;20720;-72
2023/03/04 12:20:16;;;;;;;33.03;24.33;;;4.40;99.90;;;;;;6052503;23;20185;-71
2023/03/04 12:22:45;;;;;;;37.38;26.83;;;4.30;99.90;;;;;;6041588;23;20201;-72
2023/03/04 12:25:44;;;;;;;32.97;26.80;;;4.30;99.90;;;;;;6055725;23;20215;-72
2023/03/04 12:28:25;;;;;;;40.38;27.02;;;4.40;99.90;;;;;;6042932;23;20213;-71
2023/03/04 12:31:07;;;;;;;33.20;25.73;;;4.30;99.90;;;;;;6046542;23;20267;-68
2023/03/04 12:33:45;;;;;;;32.10;26.00;;;4.30;99.90;;;;;;6046427;23;20220;-69
2023/03/04 12:36:22;;;;;;;33.75;26.80;;;4.20;99.90;;;;;;6039865;23;20578;-68
2023/03/04 12:38:59;;;;;;;35.65;26.20;;;4.20;99.90;;;;;;6057475;23;20228;-68
2023/03/04 12:41:34;;;;;;;32.25;24.90;;;4.30;99.90;;;;;;6058086;23;20184;-68
2023/03/04 12:44:15;;;;;;;35.72;25.58;;;4.20;99.90;;;;;;6053451;23;20255;-71
2023/03/04 12:47:07;;;;;;;35.25;25.38;;;4.20;99.90;;;;;;6058853;23;20189;-71
2023/03/04 12:49:45;;;;;;;33.22;24.80;;;4.10;99.90;;;;;;6038749;23;20547;-72